createdAt,value
2019-05-09T00:00:55.668Z,8.10
2019-05-09T00:03:28.569Z,7.40
2019-05-09T00:06:00.935Z,8.63
2019-05-09T00:08:33.584Z,8.00
2019-05-09T00:11:05.920Z,8.55
2019-05-09T00:13:38.166Z,8.57
2019-05-09T00:16:14.541Z,8.93
2019-05-09T00:18:46.748Z,9.50
2019-05-09T00:21:30.464Z,8.67
2019-05-09T00:24:03.665Z,8.33
2019-05-09T00:26:36.052Z,8.93
2019-05-09T00:29:14.054Z,9.93
2019-05-09T00:31:54.128Z,9.53
2019-05-09T00:34:37.031Z,9.70
2019-05-09T00:37:09.266Z,9.13
2019-05-09T00:39:43.434Z,8.67
2019-05-09T00:42:15.769Z,9.10
2019-05-09T00:44:53.289Z,8.70
2019-05-09T00:47:28.021Z,8.43
2019-05-09T00:50:00.569Z,8.33
2019-05-09T00:52:34.298Z,8.07
2019-05-09T00:55:07.581Z,8.97
2019-05-09T00:57:39.861Z,8.35
2019-05-09T01:00:14.850Z,8.30
2019-05-09T01:02:47.178Z,8.00
2019-05-09T01:05:20.192Z,8.60
2019-05-09T01:10:31.216Z,8.50
2019-05-09T01:13:03.756Z,8.50
2019-05-09T01:15:36.157Z,8.40
2019-05-09T01:18:08.469Z,8.63
2019-05-09T01:20:40.693Z,8.03
2019-05-09T01:23:14.269Z,7.87
2019-05-09T01:25:46.884Z,7.83
2019-05-09T01:28:19.143Z,7.70
2019-05-09T01:30:53.242Z,7.90
2019-05-09T01:33:53.291Z,8.67
2019-05-09T01:36:26.586Z,8.50
2019-05-09T01:38:59.579Z,9.27
2019-05-09T01:41:34.106Z,9.43
2019-05-09T01:44:06.162Z,9.05
2019-05-09T01:46:38.396Z,8.77
2019-05-09T01:49:10.724Z,10.30
2019-05-09T01:51:44.457Z,9.33
2019-05-09T01:54:23.702Z,9.30
2019-05-09T01:56:57.234Z,9.33
2019-05-09T01:59:29.594Z,9.77
2019-05-09T02:02:08.282Z,11.78
2019-05-09T02:04:36.028Z,11.73
2019-05-09T02:07:08.264Z,11.90
2019-05-09T02:09:40.598Z,12.77
2019-05-09T02:12:14.190Z,11.33
2019-05-09T02:15:03.923Z,11.93
2019-05-09T02:18:07.051Z,12.40
2019-05-09T02:20:39.660Z,12.53
2019-05-09T02:23:13.886Z,12.63
2019-05-09T02:25:45.909Z,13.30
2019-05-09T02:28:18.540Z,12.30
2019-05-09T02:30:50.840Z,13.22
2019-05-09T02:33:25.026Z,13.33
2019-05-09T02:36:01.684Z,14.73
2019-05-09T02:38:31.392Z,14.77
2019-05-09T02:41:03.960Z,14.57
2019-05-09T02:43:38.887Z,15.43
2019-05-09T02:46:29.427Z,14.77
2019-05-09T02:49:03.103Z,15.63
2019-05-09T02:51:38.421Z,16.47
2019-05-09T02:54:10.146Z,15.77
2019-05-09T02:56:42.695Z,17.03
2019-05-09T02:59:49.087Z,16.13
2019-05-09T03:02:48.784Z,16.83
2019-05-09T03:05:21.615Z,17.67
2019-05-09T03:07:54.077Z,19.25
2019-05-09T03:10:29.347Z,18.90
2019-05-09T03:13:00.582Z,17.80
2019-05-09T03:15:35.455Z,18.03
2019-05-09T03:18:08.917Z,22.20
2019-05-09T03:21:18.909Z,19.10
2019-05-09T03:23:49.910Z,19.60
2019-05-09T03:26:29.083Z,20.10
2019-05-09T03:29:19.263Z,20.80
2019-05-09T03:31:53.238Z,20.07
2019-05-09T03:34:25.500Z,21.40
2019-05-09T03:36:58.147Z,22.20
2019-05-09T03:39:30.967Z,21.52
2019-05-09T03:42:04.505Z,22.57
2019-05-09T03:44:38.467Z,21.70
2019-05-09T03:47:17.853Z,22.60
2019-05-09T03:50:10.300Z,23.27
2019-05-09T03:52:42.858Z,23.67
2019-05-09T03:55:31.238Z,24.17
2019-05-09T03:58:14.830Z,24.97
2019-05-09T04:00:47.939Z,22.20
2019-05-09T04:03:20.617Z,23.18
2019-05-09T04:05:59.144Z,24.87
2019-05-09T04:08:28.222Z,26.87
2019-05-09T04:11:00.623Z,27.63
2019-05-09T04:13:38.490Z,28.13
2019-05-09T04:16:12.069Z,29.10
2019-05-09T04:18:44.359Z,29.43
2019-05-09T04:21:17.581Z,30.80
2019-05-09T04:23:49.885Z,28.95
2019-05-09T04:26:50.726Z,26.77
2019-05-09T04:29:23.290Z,32.63
2019-05-09T04:31:57.491Z,27.27
2019-05-09T04:34:29.965Z,29.20
2019-05-09T04:37:02.523Z,28.27
2019-05-09T04:39:35.120Z,28.30
2019-05-09T04:42:08.292Z,29.30
2019-05-09T04:45:02.720Z,28.87
2019-05-09T04:47:33.917Z,29.53
2019-05-09T04:50:04.703Z,31.13
2019-05-09T04:52:39.886Z,35.28
2019-05-09T04:55:18.481Z,30.27
2019-05-09T04:57:51.110Z,33.70
2019-05-09T05:00:30.160Z,34.20
2019-05-09T05:03:02.788Z,34.37
2019-05-09T05:05:37.141Z,34.33
2019-05-09T05:08:09.962Z,35.43
2019-05-09T05:10:42.507Z,37.47
2019-05-09T05:13:25.752Z,38.47
2019-05-09T05:15:49.173Z,37.53
2019-05-09T05:18:21.420Z,36.47
2019-05-09T05:20:54.406Z,34.27
2019-05-09T05:23:32.925Z,36.57
2019-05-09T05:26:05.455Z,39.00
2019-05-09T05:28:38.368Z,42.85
2019-05-09T05:31:10.872Z,38.23
2019-05-09T05:33:53.853Z,39.65
2019-05-09T05:36:27.979Z,34.63
2019-05-09T05:39:00.395Z,40.10
2019-05-09T05:41:32.704Z,40.10
2019-05-09T05:44:04.968Z,41.00
2019-05-09T05:46:54.197Z,40.03
2019-05-09T05:49:27.991Z,36.00
2019-05-09T05:52:00.748Z,38.53
2019-05-09T05:54:34.143Z,37.57
2019-05-09T05:57:08.468Z,38.43
2019-05-09T05:59:41.178Z,35.23
2019-05-09T06:02:14.567Z,37.17
2019-05-09T06:04:48.665Z,36.35
2019-05-09T06:07:21.004Z,34.83
2019-05-09T06:09:53.326Z,38.27
2019-05-09T06:12:27.601Z,36.27
2019-05-09T06:15:00.164Z,35.03
2019-05-09T06:17:32.727Z,32.33
2019-05-09T06:20:08.186Z,36.33
2019-05-09T06:22:40.599Z,35.17
2019-05-09T06:25:13.139Z,34.67
2019-05-09T06:27:45.401Z,35.35
2019-05-09T06:30:28.413Z,32.90
2019-05-09T06:33:04.254Z,34.40
2019-05-09T06:35:37.737Z,33.47
2019-05-09T06:38:10.897Z,34.00
2019-05-09T06:40:43.611Z,33.13
2019-05-09T06:43:20.231Z,33.93
2019-05-09T06:46:21.009Z,36.73
2019-05-09T06:48:53.848Z,34.10
2019-05-09T06:51:27.677Z,35.37
2019-05-09T06:54:00.097Z,36.23
2019-05-09T06:56:32.529Z,32.20
2019-05-09T06:59:04.931Z,34.63
2019-05-09T07:01:42.946Z,34.53
2019-05-09T07:04:29.415Z,35.95
2019-05-09T07:07:28.053Z,34.70
2019-05-09T07:10:02.108Z,34.77
2019-05-09T07:12:34.468Z,33.02
2019-05-09T07:15:08.747Z,33.93
2019-05-09T07:17:42.244Z,37.37
2019-05-09T07:20:15.346Z,34.67
2019-05-09T07:22:50.792Z,34.67
2019-05-09T07:25:47.977Z,33.23
2019-05-09T07:28:21.308Z,34.77
2019-05-09T07:31:17.616Z,33.60
2019-05-09T07:34:18.467Z,33.43
2019-05-09T07:36:50.960Z,33.00
2019-05-09T07:39:23.272Z,32.77
2019-05-09T07:41:55.521Z,35.57
2019-05-09T07:44:37.899Z,35.43
2019-05-09T07:47:07.506Z,33.93
2019-05-09T07:49:40.245Z,35.70
2019-05-09T07:52:13.115Z,35.97
2019-05-09T07:54:52.099Z,35.43
2019-05-09T07:57:24.459Z,35.20
2019-05-09T07:59:58.427Z,35.20
2019-05-09T08:02:30.908Z,34.43
2019-05-09T08:05:03.241Z,33.43
2019-05-09T08:07:38.167Z,33.67
2019-05-09T08:10:11.319Z,32.73
2019-05-09T08:12:44.700Z,33.60
2019-05-09T08:15:20.026Z,32.80
2019-05-09T08:17:51.455Z,31.13
2019-05-09T08:20:23.730Z,31.93
2019-05-09T08:22:58.646Z,30.27
2019-05-09T08:25:30.037Z,32.00
2019-05-09T08:28:06.071Z,30.63
2019-05-09T08:30:40.380Z,29.43
2019-05-09T08:33:13.167Z,30.57
2019-05-09T08:35:49.827Z,28.50
2019-05-09T08:38:20.106Z,28.80
2019-05-09T08:41:09.320Z,28.93
2019-05-09T08:43:42.733Z,27.77
2019-05-09T08:46:17.894Z,27.37
2019-05-09T08:48:49.516Z,27.77
2019-05-09T08:51:37.501Z,27.73
2019-05-09T08:54:09.279Z,26.30
2019-05-09T08:56:41.735Z,28.33
2019-05-09T08:59:14.052Z,25.30
2019-05-09T09:02:10.037Z,24.87
2019-05-09T09:04:20.422Z,22.93
2019-05-09T09:06:52.942Z,23.03
2019-05-09T09:09:25.506Z,22.13
2019-05-09T09:11:58.481Z,22.00
2019-05-09T09:14:30.877Z,22.37
2019-05-09T09:17:03.458Z,21.43
2019-05-09T09:19:38.375Z,22.03
2019-05-09T09:22:10.056Z,19.70
2019-05-09T09:24:42.609Z,19.93
2019-05-09T09:27:15.260Z,19.42
2019-05-09T09:29:48.243Z,20.43
2019-05-09T09:32:20.582Z,19.83
2019-05-09T09:34:53.153Z,20.57
2019-05-09T09:37:28.322Z,18.48
2019-05-09T09:39:59.767Z,17.77
2019-05-09T09:42:32.422Z,16.63
2019-05-09T09:45:08.059Z,17.90
2019-05-09T09:47:40.794Z,21.05
2019-05-09T09:50:14.416Z,17.23
2019-05-09T09:52:49.102Z,17.13
2019-05-09T09:55:21.741Z,15.50
2019-05-09T09:57:57.010Z,14.27
2019-05-09T10:01:18.102Z,14.93
2019-05-09T10:03:58.142Z,17.27
2019-05-09T10:06:30.237Z,12.40
2019-05-09T10:09:02.767Z,14.53
2019-05-09T10:11:35.191Z,13.03
2019-05-09T10:14:09.098Z,11.97
2019-05-09T10:17:10.137Z,14.50
2019-05-09T10:19:57.421Z,12.97
2019-05-09T10:22:29.829Z,11.93
2019-05-09T10:25:02.083Z,11.10
2019-05-09T10:27:35.470Z,11.77
2019-05-09T10:30:09.130Z,9.93
2019-05-09T10:32:41.591Z,12.17
2019-05-09T10:35:22.549Z,10.93
2019-05-09T10:37:55.333Z,10.67
2019-05-09T10:40:28.186Z,9.50
2019-05-09T10:43:34.701Z,10.57
2019-05-09T10:46:19.116Z,12.43
2019-05-09T10:48:58.421Z,10.30
2019-05-09T10:51:29.626Z,10.80
2019-05-09T10:54:04.243Z,11.63
2019-05-09T10:56:38.449Z,12.73
2019-05-09T10:59:11.226Z,8.08
2019-05-09T11:01:43.465Z,11.43
2019-05-09T11:04:18.029Z,9.27
2019-05-09T11:06:49.955Z,7.97
2019-05-09T11:09:22.271Z,7.80
2019-05-09T11:11:54.511Z,7.42
2019-05-09T11:14:36.034Z,8.23
2019-05-09T11:17:10.978Z,9.93
2019-05-09T11:19:35.051Z,8.30
2019-05-09T11:22:08.203Z,8.77
2019-05-09T11:24:46.162Z,8.10
2019-05-09T11:27:15.043Z,7.87
2019-05-09T11:29:49.756Z,7.37
2019-05-09T11:32:21.635Z,8.47
2019-05-09T11:34:53.967Z,7.75
2019-05-09T11:37:26.500Z,8.60
2019-05-09T11:39:58.767Z,6.60
2019-05-09T11:42:33.407Z,10.53
2019-05-09T11:45:07.668Z,9.00
2019-05-09T11:47:45.938Z,7.87
2019-05-09T11:50:13.576Z,7.97
2019-05-09T11:52:45.905Z,8.30
2019-05-09T11:55:29.772Z,8.48
2019-05-09T11:57:53.958Z,6.33
2019-05-09T12:00:29.214Z,10.90
2019-05-09T12:03:00.735Z,7.93
2019-05-09T12:05:32.987Z,7.70
2019-05-09T12:08:05.306Z,7.53
2019-05-09T12:10:38.313Z,4.93
2019-05-09T12:13:10.826Z,14.07
2019-05-09T12:15:43.575Z,5.67
2019-05-09T12:18:15.881Z,6.10
2019-05-09T12:20:48.555Z,8.37
2019-05-09T12:23:21.501Z,5.10
2019-05-09T12:25:54.381Z,6.50
2019-05-09T12:28:28.361Z,5.83
2019-05-09T12:31:00.932Z,4.80
2019-05-09T12:33:33.505Z,6.50
2019-05-09T12:36:09.050Z,5.50
2019-05-09T12:38:39.994Z,6.70
2019-05-09T12:41:12.311Z,4.35
2019-05-09T12:43:44.576Z,6.03
2019-05-09T12:46:16.951Z,7.27
2019-05-09T12:48:49.486Z,4.67
2019-05-09T12:51:21.753Z,4.07
2019-05-09T12:53:54.109Z,6.13
2019-05-09T12:56:28.437Z,5.70
2019-05-09T12:59:00.391Z,5.70
2019-05-09T13:01:33.243Z,5.80
2019-05-09T13:04:05.562Z,5.80
2019-05-09T13:06:38.211Z,5.07
2019-05-09T13:09:10.600Z,3.40
2019-05-09T13:11:43.191Z,3.13
2019-05-09T13:14:15.761Z,3.83
2019-05-09T13:17:07.834Z,5.10
2019-05-09T13:19:47.781Z,6.27
2019-05-09T13:22:19.414Z,3.83
2019-05-09T13:24:53.350Z,4.87
2019-05-09T13:27:28.443Z,4.30
2019-05-09T13:29:59.679Z,3.83
2019-05-09T13:32:31.970Z,3.40
2019-05-09T13:35:05.113Z,3.70
2019-05-09T13:37:38.372Z,5.73
2019-05-09T13:40:10.896Z,4.73
2019-05-09T13:42:43.231Z,5.40
2019-05-09T13:45:15.544Z,5.83
2019-05-09T13:47:49.460Z,5.93
2019-05-09T13:50:21.888Z,6.90
2019-05-09T13:52:54.345Z,7.92
2019-05-09T13:55:27.537Z,6.77
2019-05-09T13:58:00.452Z,10.53
2019-05-09T14:00:32.753Z,3.57
2019-05-09T14:03:07.889Z,4.23
2019-05-09T14:05:39.472Z,4.90
2019-05-09T14:08:11.952Z,4.80
2019-05-09T14:10:44.332Z,4.30
2019-05-09T14:13:18.930Z,5.50
2019-05-09T14:15:50.532Z,8.10
2019-05-09T14:18:26.947Z,3.97
2019-05-09T14:20:59.490Z,4.53
2019-05-09T14:23:35.395Z,8.03
2019-05-09T14:26:09.112Z,4.30
2019-05-09T14:28:39.738Z,5.67
2019-05-09T14:31:12.009Z,3.77
2019-05-09T14:33:44.403Z,4.13
2019-05-09T14:36:16.945Z,4.57
2019-05-09T14:38:50.059Z,3.57
2019-05-09T14:41:22.569Z,6.00
2019-05-09T14:43:55.161Z,4.30
2019-05-09T14:46:28.451Z,4.53
2019-05-09T14:49:01.281Z,4.85
2019-05-09T14:51:33.549Z,6.03
2019-05-09T14:54:08.282Z,6.40
2019-05-09T14:56:42.567Z,6.60
2019-05-09T14:59:15.138Z,6.63
2019-05-09T15:01:49.543Z,7.20
2019-05-09T15:04:22.319Z,4.80
2019-05-09T15:06:57.626Z,5.33
2019-05-09T15:09:28.866Z,3.93
2019-05-09T15:12:01.180Z,3.90
2019-05-09T15:14:33.411Z,6.73
2019-05-09T15:17:05.821Z,4.27
2019-05-09T15:19:38.716Z,6.53
2019-05-09T15:22:11.605Z,3.63
2019-05-09T15:24:43.917Z,4.35
2019-05-09T15:27:17.686Z,3.87
2019-05-09T15:29:50.139Z,3.90
2019-05-09T15:32:22.682Z,5.53
2019-05-09T15:34:57.554Z,4.53
2019-05-09T15:37:28.900Z,5.30
2019-05-09T15:40:01.162Z,6.63
2019-05-09T15:42:33.443Z,6.40
2019-05-09T15:45:07.784Z,5.10
2019-05-09T15:47:40.577Z,5.00
2019-05-09T15:50:22.595Z,4.70
2019-05-09T15:52:47.025Z,5.53
2019-05-09T15:55:19.633Z,5.37
2019-05-09T15:57:51.916Z,3.53
2019-05-09T16:00:24.514Z,3.67
2019-05-09T16:02:59.077Z,3.90
2019-05-09T16:05:31.850Z,4.60
2019-05-09T16:08:04.538Z,6.47
2019-05-09T16:10:37.386Z,5.33
2019-05-09T16:13:09.683Z,3.67
2019-05-09T16:15:42.009Z,5.50
2019-05-09T16:18:14.351Z,5.80
2019-05-09T16:20:48.754Z,3.87
2019-05-09T16:23:21.018Z,4.67
2019-05-09T16:25:53.388Z,4.43
2019-05-09T16:28:26.699Z,4.43
2019-05-09T16:31:00.496Z,5.33
2019-05-09T16:33:32.762Z,4.70
2019-05-09T16:36:05.109Z,4.30
2019-05-09T16:38:43.027Z,6.97
2019-05-09T16:41:11.670Z,4.27
2019-05-09T16:43:44.004Z,3.30
2019-05-09T16:46:18.120Z,3.93
2019-05-09T16:48:54.468Z,5.67
2019-05-09T16:51:28.613Z,5.27
2019-05-09T16:54:00.793Z,3.77
2019-05-09T16:56:33.402Z,4.93
2019-05-09T16:59:08.083Z,5.42
2019-05-09T17:01:46.650Z,3.50
2019-05-09T17:04:19.117Z,5.97
2019-05-09T17:06:51.567Z,4.93
2019-05-09T17:09:23.844Z,7.90
2019-05-09T17:11:57.830Z,4.57
2019-05-09T17:14:31.056Z,6.47
2019-05-09T17:17:03.379Z,6.57
2019-05-09T17:19:37.700Z,8.20
2019-05-09T17:22:17.653Z,6.83
2019-05-09T17:24:51.139Z,7.93
2019-05-09T17:27:23.466Z,6.60
2019-05-09T17:29:56.136Z,7.73
2019-05-09T17:32:28.605Z,6.33
2019-05-09T17:35:01.681Z,7.70
2019-05-09T17:37:33.997Z,5.50
2019-05-09T17:40:07.995Z,5.47
2019-05-09T17:42:40.686Z,4.73
2019-05-09T17:45:13.646Z,5.67
2019-05-09T17:47:48.427Z,4.03
2019-05-09T17:50:20.178Z,6.47
2019-05-09T17:52:52.578Z,3.80
2019-05-09T17:55:25.400Z,4.27
2019-05-09T17:57:58.680Z,4.10
2019-05-09T18:00:33.225Z,6.08
2019-05-09T18:03:06.611Z,3.37
2019-05-09T18:05:39.153Z,5.63
2019-05-09T18:08:12.737Z,5.60
2019-05-09T18:10:45.317Z,4.07
2019-05-09T18:13:23.531Z,4.37
2019-05-09T18:15:51.847Z,4.70
2019-05-09T18:18:24.114Z,4.93
2019-05-09T18:20:57.992Z,4.03
2019-05-09T18:23:30.512Z,4.57
2019-05-09T18:26:03.896Z,4.17
2019-05-09T18:28:40.166Z,3.07
2019-05-09T18:31:14.034Z,3.30
2019-05-09T18:33:51.286Z,6.40
2019-05-09T18:36:23.545Z,3.27
2019-05-09T18:38:55.780Z,5.63
2019-05-09T18:41:28.734Z,5.27
2019-05-09T18:44:01.218Z,4.67
2019-05-09T18:46:33.571Z,8.37
2019-05-09T18:49:06.094Z,4.17
2019-05-09T18:51:38.661Z,4.17
2019-05-09T18:54:11.892Z,4.33
2019-05-09T18:56:44.220Z,5.37
2019-05-09T18:59:16.852Z,4.40
2019-05-09T19:01:49.395Z,3.05
2019-05-09T19:04:22.285Z,4.93
2019-05-09T19:06:54.535Z,3.07
2019-05-09T19:09:26.812Z,4.93
2019-05-09T19:11:59.048Z,4.60
2019-05-09T19:14:31.392Z,4.23
2019-05-09T19:17:28.898Z,5.20
2019-05-09T19:20:15.825Z,5.63
2019-05-09T19:22:48.062Z,4.50
2019-05-09T19:25:20.351Z,5.63
2019-05-09T19:27:53.423Z,4.13
2019-05-09T19:30:25.822Z,4.90
2019-05-09T19:32:58.131Z,4.53
2019-05-09T19:35:30.394Z,3.90
2019-05-09T19:38:02.808Z,3.93
2019-05-09T19:40:35.375Z,6.17
2019-05-09T19:43:08.281Z,6.45
2019-05-09T19:45:40.543Z,4.13
2019-05-09T19:48:13.444Z,3.90
2019-05-09T19:50:46.039Z,5.55
2019-05-09T19:53:18.629Z,4.33
2019-05-09T19:55:50.889Z,5.47
2019-05-09T19:58:23.217Z,3.47
2019-05-09T20:00:55.804Z,4.40
2019-05-09T20:03:28.164Z,7.57
2019-05-09T20:06:00.372Z,4.10
2019-05-09T20:08:34.375Z,4.40
2019-05-09T20:11:24.650Z,4.80
2019-05-09T20:14:28.232Z,4.65
2019-05-09T20:17:00.894Z,5.27
2019-05-09T20:19:33.225Z,4.20
2019-05-09T20:22:05.460Z,8.33
2019-05-09T20:24:37.747Z,5.67
2019-05-09T20:27:10.262Z,4.17
2019-05-09T20:29:43.139Z,3.67
2019-05-09T20:32:15.384Z,5.70
2019-05-09T20:34:47.668Z,5.03
2019-05-09T20:37:19.918Z,5.30
2019-05-09T20:39:52.752Z,5.20
2019-05-09T20:42:25.197Z,6.67
2019-05-09T20:44:57.667Z,4.10
2019-05-09T20:47:30.123Z,4.20
2019-05-09T20:50:02.904Z,3.77
2019-05-09T20:52:35.470Z,5.45
2019-05-09T20:55:09.149Z,4.60
2019-05-09T20:57:42.142Z,4.72
2019-05-09T21:00:15.498Z,4.47
2019-05-09T21:02:47.952Z,4.17
2019-05-09T21:05:20.433Z,5.33
2019-05-09T21:07:53.174Z,4.63
2019-05-09T21:10:25.648Z,4.67
2019-05-09T21:12:58.099Z,7.70
2019-05-09T21:15:30.602Z,4.53
2019-05-09T21:18:03.095Z,5.73
2019-05-09T21:20:35.628Z,4.63
2019-05-09T21:23:08.061Z,4.83
2019-05-09T21:25:40.621Z,4.70
2019-05-09T21:28:13.326Z,4.53
2019-05-09T21:30:45.982Z,5.17
2019-05-09T21:33:18.694Z,6.50
2019-05-09T21:35:51.007Z,5.60
2019-05-09T21:38:23.567Z,5.90
2019-05-09T21:40:55.851Z,8.13
2019-05-09T21:43:28.410Z,6.75
2019-05-09T21:46:00.682Z,6.20
2019-05-09T21:48:33.000Z,5.20
2019-05-09T21:51:05.317Z,3.93
2019-05-09T21:53:40.873Z,5.27
2019-05-09T21:56:12.171Z,7.07
2019-05-09T21:58:44.561Z,6.80
2019-05-09T22:01:19.638Z,6.03
2019-05-09T22:03:53.711Z,6.58
2019-05-09T22:06:25.984Z,6.03
2019-05-09T22:08:58.491Z,6.33
2019-05-09T22:11:30.883Z,5.13
2019-05-09T22:14:03.138Z,6.77
2019-05-09T22:16:36.023Z,5.03
2019-05-09T22:19:09.253Z,5.27
2019-05-09T22:21:41.859Z,6.27
2019-05-09T22:24:14.273Z,5.55
2019-05-09T22:26:46.597Z,6.07
2019-05-09T22:29:18.885Z,6.08
2019-05-09T22:31:51.500Z,5.97
2019-05-09T22:34:23.777Z,4.47
2019-05-09T22:36:56.073Z,6.23
2019-05-09T22:39:28.337Z,7.30
2019-05-09T22:42:00.961Z,6.47
2019-05-09T22:44:33.196Z,5.80
2019-05-09T22:47:05.784Z,3.98
2019-05-09T22:49:38.307Z,7.33
2019-05-09T22:52:10.901Z,6.43
2019-05-09T22:54:45.356Z,5.40
2019-05-09T22:57:17.718Z,6.27
2019-05-09T22:59:50.580Z,6.63
2019-05-09T23:02:22.904Z,6.20
2019-05-09T23:04:55.162Z,7.57
2019-05-09T23:07:27.450Z,5.57
2019-05-09T23:09:59.773Z,5.42
2019-05-09T23:12:32.652Z,5.80
2019-05-09T23:15:05.204Z,10.70
2019-05-09T23:17:38.018Z,10.30
2019-05-09T23:20:18.657Z,8.27
2019-05-09T23:22:50.918Z,7.77
2019-05-09T23:25:23.221Z,7.90
2019-05-09T23:27:55.531Z,10.30
2019-05-09T23:30:27.854Z,10.32
2019-05-09T23:33:00.510Z,9.67
2019-05-09T23:35:32.695Z,9.33
2019-05-09T23:38:05.386Z,10.10
2019-05-09T23:40:37.643Z,6.90
2019-05-09T23:43:10.039Z,10.03
2019-05-09T23:45:42.331Z,8.10
2019-05-09T23:48:16.078Z,11.13
2019-05-09T23:50:48.326Z,8.87
2019-05-09T23:53:31.756Z,8.58
2019-05-09T23:56:21.527Z,9.37
2019-05-09T23:59:11.071Z,7.57
